sensor_id;sensor_type;location;lat;lon;timestamp;P1;durP1;ratioP1;P2;durP2;ratioP2
9950;SDS011;24074;49.254;6.702;2022-12-17T00:00:54;10.93;;;7.77;;
9950;SDS011;24074;49.254;6.702;2022-12-17T00:03:41;12.23;;;8.93;;
9950;SDS011;24074;49.254;6.702;2022-12-17T00:06:25;18.23;;;13.33;;
9950;SDS011;24074;49.254;6.702;2022-12-17T00:09:09;15.77;;;12.10;;
9950;SDS011;24074;49.254;6.702;2022-12-17T00:11:53;15.10;;;11.53;;
9950;SDS011;24074;49.254;6.702;2022-12-17T00:14:37;17.97;;;12.60;;
9950;SDS011;24074;49.254;6.702;2022-12-17T00:17:21;15.67;;;12.47;;
9950;SDS011;24074;49.254;6.702;2022-12-17T00:20:06;18.63;;;12.10;;
9950;SDS011;24074;49.254;6.702;2022-12-17T00:23:00;13.30;;;10.37;;
9950;SDS011;24074;49.254;6.702;2022-12-17T00:25:53;11.87;;;7.93;;
9950;SDS011;24074;49.254;6.702;2022-12-17T00:28:38;10.67;;;9.00;;
9950;SDS011;24074;49.254;6.702;2022-12-17T00:31:23;10.50;;;7.43;;
9950;SDS011;24074;49.254;6.702;2022-12-17T00:34:09;9.57;;;7.23;;
9950;SDS011;24074;49.254;6.702;2022-12-17T00:36:53;9.73;;;7.07;;
9950;SDS011;24074;49.254;6.702;2022-12-17T00:39:37;11.53;;;7.13;;
9950;SDS011;24074;49.254;6.702;2022-12-17T00:42:21;10.63;;;7.00;;
9950;SDS011;24074;49.254;6.702;2022-12-17T00:45:05;9.73;;;6.90;;
9950;SDS011;24074;49.254;6.702;2022-12-17T00:47:49;10.13;;;6.97;;
9950;SDS011;24074;49.254;6.702;2022-12-17T00:50:33;10.53;;;7.77;;
9950;SDS011;24074;49.254;6.702;2022-12-17T00:53:17;9.60;;;6.87;;
9950;SDS011;24074;49.254;6.702;2022-12-17T00:56:01;8.97;;;6.57;;
9950;SDS011;24074;49.254;6.702;2022-12-17T00:58:45;8.90;;;6.50;;
9950;SDS011;24074;49.254;6.702;2022-12-17T01:01:30;9.50;;;7.00;;
9950;SDS011;24074;49.254;6.702;2022-12-17T01:04:14;10.17;;;7.53;;
9950;SDS011;24074;49.254;6.702;2022-12-17T01:06:58;9.93;;;7.17;;
9950;SDS011;24074;49.254;6.702;2022-12-17T01:09:42;10.83;;;7.50;;
9950;SDS011;24074;49.254;6.702;2022-12-17T01:12:26;12.43;;;8.10;;
9950;SDS011;24074;49.254;6.702;2022-12-17T01:15:10;12.27;;;7.97;;
9950;SDS011;24074;49.254;6.702;2022-12-17T01:17:58;10.50;;;7.70;;
9950;SDS011;24074;49.254;6.702;2022-12-17T01:20:43;11.20;;;7.53;;
9950;SDS011;24074;49.254;6.702;2022-12-17T01:23:27;12.50;;;8.57;;
9950;SDS011;24074;49.254;6.702;2022-12-17T01:26:11;11.10;;;7.67;;
9950;SDS011;24074;49.254;6.702;2022-12-17T01:28:58;11.10;;;8.27;;
9950;SDS011;24074;49.254;6.702;2022-12-17T01:31:42;9.77;;;7.67;;
9950;SDS011;24074;49.254;6.702;2022-12-17T01:34:43;10.27;;;7.57;;
9950;SDS011;24074;49.254;6.702;2022-12-17T01:37:27;12.03;;;7.30;;
9950;SDS011;24074;49.254;6.702;2022-12-17T01:40:11;10.33;;;7.43;;
9950;SDS011;24074;49.254;6.702;2022-12-17T01:42:55;10.63;;;7.50;;
9950;SDS011;24074;49.254;6.702;2022-12-17T01:45:40;11.30;;;8.00;;
9950;SDS011;24074;49.254;6.702;2022-12-17T01:48:29;11.63;;;7.83;;
9950;SDS011;24074;49.254;6.702;2022-12-17T01:51:19;13.10;;;9.03;;
9950;SDS011;24074;49.254;6.702;2022-12-17T01:54:03;13.23;;;8.33;;
9950;SDS011;24074;49.254;6.702;2022-12-17T01:56:47;12.20;;;8.00;;
9950;SDS011;24074;49.254;6.702;2022-12-17T02:00:18;11.73;;;7.97;;
9950;SDS011;24074;49.254;6.702;2022-12-17T02:02:39;11.50;;;7.77;;
9950;SDS011;24074;49.254;6.702;2022-12-17T02:05:26;11.13;;;7.20;;
9950;SDS011;24074;49.254;6.702;2022-12-17T02:11:23;11.13;;;7.67;;
9950;SDS011;24074;49.254;6.702;2022-12-17T02:17:16;9.77;;;7.00;;
9950;SDS011;24074;49.254;6.702;2022-12-17T02:26:46;8.87;;;6.30;;
9950;SDS011;24074;49.254;6.702;2022-12-17T02:29:38;11.73;;;8.10;;
9950;SDS011;24074;49.254;6.702;2022-12-17T02:32:25;8.83;;;6.67;;
9950;SDS011;24074;49.254;6.702;2022-12-17T02:35:13;10.67;;;7.20;;
9950;SDS011;24074;49.254;6.702;2022-12-17T02:37:59;11.27;;;7.40;;
9950;SDS011;24074;49.254;6.702;2022-12-17T02:40:43;12.83;;;8.23;;
9950;SDS011;24074;49.254;6.702;2022-12-17T02:43:29;11.87;;;8.03;;
9950;SDS011;24074;49.254;6.702;2022-12-17T02:46:15;11.13;;;7.90;;
9950;SDS011;24074;49.254;6.702;2022-12-17T02:49:00;12.77;;;8.50;;
9950;SDS011;24074;49.254;6.702;2022-12-17T02:51:44;12.27;;;8.90;;
9950;SDS011;24074;49.254;6.702;2022-12-17T02:54:30;12.83;;;8.63;;
9950;SDS011;24074;49.254;6.702;2022-12-17T02:57:15;13.73;;;9.43;;
9950;SDS011;24074;49.254;6.702;2022-12-17T02:59:59;13.83;;;9.50;;
9950;SDS011;24074;49.254;6.702;2022-12-17T03:02:43;15.00;;;9.90;;
9950;SDS011;24074;49.254;6.702;2022-12-17T03:05:27;13.73;;;9.73;;
9950;SDS011;24074;49.254;6.702;2022-12-17T03:08:11;12.83;;;8.80;;
9950;SDS011;24074;49.254;6.702;2022-12-17T03:10:55;13.30;;;9.93;;
9950;SDS011;24074;49.254;6.702;2022-12-17T03:13:39;13.00;;;9.33;;
9950;SDS011;24074;49.254;6.702;2022-12-17T03:16:23;14.57;;;9.60;;
9950;SDS011;24074;49.254;6.702;2022-12-17T03:19:08;13.73;;;9.57;;
9950;SDS011;24074;49.254;6.702;2022-12-17T03:21:53;14.33;;;9.63;;
9950;SDS011;24074;49.254;6.702;2022-12-17T03:24:37;12.43;;;9.30;;
9950;SDS011;24074;49.254;6.702;2022-12-17T03:27:21;13.40;;;9.47;;
9950;SDS011;24074;49.254;6.702;2022-12-17T03:30:06;14.27;;;9.97;;
9950;SDS011;24074;49.254;6.702;2022-12-17T03:32:51;18.13;;;9.67;;
9950;SDS011;24074;49.254;6.702;2022-12-17T03:35:35;12.60;;;8.80;;
9950;SDS011;24074;49.254;6.702;2022-12-17T03:38:19;13.93;;;9.63;;
9950;SDS011;24074;49.254;6.702;2022-12-17T03:41:03;13.90;;;9.17;;
9950;SDS011;24074;49.254;6.702;2022-12-17T03:43:47;12.90;;;8.93;;
9950;SDS011;24074;49.254;6.702;2022-12-17T03:46:31;15.30;;;9.40;;
9950;SDS011;24074;49.254;6.702;2022-12-17T03:49:15;13.10;;;9.53;;
9950;SDS011;24074;49.254;6.702;2022-12-17T03:51:59;12.77;;;9.23;;
9950;SDS011;24074;49.254;6.702;2022-12-17T03:54:43;12.10;;;9.00;;
9950;SDS011;24074;49.254;6.702;2022-12-17T03:57:27;12.17;;;7.93;;
9950;SDS011;24074;49.254;6.702;2022-12-17T04:00:13;12.77;;;8.83;;
9950;SDS011;24074;49.254;6.702;2022-12-17T04:02:57;14.23;;;9.17;;
9950;SDS011;24074;49.254;6.702;2022-12-17T04:05:41;13.90;;;9.10;;
9950;SDS011;24074;49.254;6.702;2022-12-17T04:08:25;11.33;;;8.17;;
9950;SDS011;24074;49.254;6.702;2022-12-17T04:11:09;13.67;;;8.77;;
9950;SDS011;24074;49.254;6.702;2022-12-17T04:13:53;12.63;;;9.07;;
9950;SDS011;24074;49.254;6.702;2022-12-17T04:16:37;14.80;;;9.67;;
9950;SDS011;24074;49.254;6.702;2022-12-17T04:19:22;13.00;;;9.47;;
9950;SDS011;24074;49.254;6.702;2022-12-17T04:22:06;13.80;;;9.97;;
9950;SDS011;24074;49.254;6.702;2022-12-17T04:24:50;12.47;;;9.47;;
9950;SDS011;24074;49.254;6.702;2022-12-17T04:27:34;14.87;;;9.77;;
9950;SDS011;24074;49.254;6.702;2022-12-17T04:30:17;14.00;;;9.17;;
9950;SDS011;24074;49.254;6.702;2022-12-17T04:33:02;14.33;;;9.83;;
9950;SDS011;24074;49.254;6.702;2022-12-17T04:35:46;13.73;;;10.07;;
9950;SDS011;24074;49.254;6.702;2022-12-17T04:38:30;14.97;;;10.30;;
9950;SDS011;24074;49.254;6.702;2022-12-17T04:41:14;13.70;;;9.90;;
9950;SDS011;24074;49.254;6.702;2022-12-17T04:43:58;15.57;;;10.30;;
9950;SDS011;24074;49.254;6.702;2022-12-17T04:46:42;15.07;;;10.00;;
9950;SDS011;24074;49.254;6.702;2022-12-17T04:49:26;13.33;;;9.93;;
9950;SDS011;24074;49.254;6.702;2022-12-17T04:52:10;14.13;;;10.13;;
9950;SDS011;24074;49.254;6.702;2022-12-17T04:54:54;13.27;;;10.23;;
9950;SDS011;24074;49.254;6.702;2022-12-17T04:57:38;15.87;;;10.43;;
9950;SDS011;24074;49.254;6.702;2022-12-17T05:00:22;15.20;;;11.03;;
9950;SDS011;24074;49.254;6.702;2022-12-17T05:03:08;15.00;;;10.17;;
9950;SDS011;24074;49.254;6.702;2022-12-17T05:05:55;14.50;;;10.17;;
9950;SDS011;24074;49.254;6.702;2022-12-17T05:08:39;17.30;;;10.53;;
9950;SDS011;24074;49.254;6.702;2022-12-17T05:11:23;14.23;;;10.23;;
9950;SDS011;24074;49.254;6.702;2022-12-17T05:14:07;14.50;;;10.50;;
9950;SDS011;24074;49.254;6.702;2022-12-17T05:16:51;14.50;;;10.47;;
9950;SDS011;24074;49.254;6.702;2022-12-17T05:19:55;14.53;;;10.30;;
9950;SDS011;24074;49.254;6.702;2022-12-17T05:22:39;15.93;;;10.43;;
9950;SDS011;24074;49.254;6.702;2022-12-17T05:25:24;16.47;;;10.57;;
9950;SDS011;24074;49.254;6.702;2022-12-17T05:28:08;13.17;;;9.67;;
9950;SDS011;24074;49.254;6.702;2022-12-17T05:30:52;15.37;;;10.77;;
9950;SDS011;24074;49.254;6.702;2022-12-17T05:33:37;15.27;;;10.77;;
9950;SDS011;24074;49.254;6.702;2022-12-17T05:36:21;15.60;;;10.80;;
9950;SDS011;24074;49.254;6.702;2022-12-17T05:39:05;15.57;;;10.80;;
9950;SDS011;24074;49.254;6.702;2022-12-17T05:41:50;14.17;;;10.20;;
9950;SDS011;24074;49.254;6.702;2022-12-17T05:44:33;15.77;;;10.60;;
9950;SDS011;24074;49.254;6.702;2022-12-17T05:47:18;14.93;;;10.80;;
9950;SDS011;24074;49.254;6.702;2022-12-17T05:50:02;14.73;;;10.60;;
9950;SDS011;24074;49.254;6.702;2022-12-17T05:52:46;16.60;;;10.90;;
9950;SDS011;24074;49.254;6.702;2022-12-17T05:55:30;15.27;;;10.80;;
9950;SDS011;24074;49.254;6.702;2022-12-17T05:58:14;13.67;;;9.80;;
9950;SDS011;24074;49.254;6.702;2022-12-17T06:01:00;15.67;;;10.60;;
9950;SDS011;24074;49.254;6.702;2022-12-17T06:03:45;16.27;;;10.70;;
9950;SDS011;24074;49.254;6.702;2022-12-17T06:06:30;15.10;;;10.63;;
9950;SDS011;24074;49.254;6.702;2022-12-17T06:09:14;15.53;;;10.57;;
9950;SDS011;24074;49.254;6.702;2022-12-17T06:11:58;16.27;;;10.43;;
9950;SDS011;24074;49.254;6.702;2022-12-17T06:14:42;12.97;;;9.70;;
9950;SDS011;24074;49.254;6.702;2022-12-17T06:17:26;15.50;;;11.13;;
9950;SDS011;24074;49.254;6.702;2022-12-17T06:20:11;16.00;;;10.33;;
9950;SDS011;24074;49.254;6.702;2022-12-17T06:22:59;16.20;;;10.67;;
9950;SDS011;24074;49.254;6.702;2022-12-17T06:25:44;14.07;;;10.57;;
9950;SDS011;24074;49.254;6.702;2022-12-17T06:28:28;15.67;;;10.83;;
9950;SDS011;24074;49.254;6.702;2022-12-17T06:31:12;15.30;;;10.47;;
9950;SDS011;24074;49.254;6.702;2022-12-17T06:33:56;16.57;;;11.07;;
9950;SDS011;24074;49.254;6.702;2022-12-17T06:36:40;16.33;;;10.60;;
9950;SDS011;24074;49.254;6.702;2022-12-17T06:39:24;14.90;;;10.30;;
9950;SDS011;24074;49.254;6.702;2022-12-17T06:42:08;15.37;;;10.80;;
9950;SDS011;24074;49.254;6.702;2022-12-17T06:44:52;18.57;;;11.23;;
9950;SDS011;24074;49.254;6.702;2022-12-17T06:47:36;16.20;;;11.37;;
9950;SDS011;24074;49.254;6.702;2022-12-17T06:50:20;16.33;;;12.40;;
9950;SDS011;24074;49.254;6.702;2022-12-17T06:53:05;18.20;;;12.00;;
9950;SDS011;24074;49.254;6.702;2022-12-17T06:55:50;20.33;;;12.20;;
9950;SDS011;24074;49.254;6.702;2022-12-17T06:58:35;15.57;;;11.10;;
9950;SDS011;24074;49.254;6.702;2022-12-17T07:01:19;16.63;;;10.53;;
9950;SDS011;24074;49.254;6.702;2022-12-17T07:04:04;16.10;;;10.47;;
9950;SDS011;24074;49.254;6.702;2022-12-17T07:06:48;16.83;;;11.17;;
9950;SDS011;24074;49.254;6.702;2022-12-17T07:09:32;15.67;;;10.73;;
9950;SDS011;24074;49.254;6.702;2022-12-17T07:12:16;15.63;;;11.23;;
9950;SDS011;24074;49.254;6.702;2022-12-17T07:15:00;17.90;;;11.50;;
9950;SDS011;24074;49.254;6.702;2022-12-17T07:18:03;16.43;;;11.47;;
9950;SDS011;24074;49.254;6.702;2022-12-17T07:20:47;17.23;;;12.10;;
9950;SDS011;24074;49.254;6.702;2022-12-17T07:23:35;18.50;;;11.60;;
9950;SDS011;24074;49.254;6.702;2022-12-17T07:26:19;17.47;;;11.90;;
9950;SDS011;24074;49.254;6.702;2022-12-17T07:29:03;15.53;;;11.07;;
9950;SDS011;24074;49.254;6.702;2022-12-17T07:31:48;15.20;;;11.03;;
9950;SDS011;24074;49.254;6.702;2022-12-17T07:34:32;16.97;;;11.70;;
9950;SDS011;24074;49.254;6.702;2022-12-17T07:37:16;18.20;;;12.43;;
9950;SDS011;24074;49.254;6.702;2022-12-17T07:40:01;16.83;;;11.27;;
9950;SDS011;24074;49.254;6.702;2022-12-17T07:42:44;15.77;;;11.27;;
9950;SDS011;24074;49.254;6.702;2022-12-17T07:45:29;18.27;;;12.23;;
9950;SDS011;24074;49.254;6.702;2022-12-17T07:48:13;18.07;;;11.93;;
9950;SDS011;24074;49.254;6.702;2022-12-17T07:50:57;16.50;;;11.83;;
9950;SDS011;24074;49.254;6.702;2022-12-17T07:53:41;18.13;;;12.87;;
9950;SDS011;24074;49.254;6.702;2022-12-17T07:56:25;17.83;;;12.30;;
9950;SDS011;24074;49.254;6.702;2022-12-17T07:59:09;16.17;;;12.07;;
9950;SDS011;24074;49.254;6.702;2022-12-17T08:01:53;17.47;;;11.87;;
9950;SDS011;24074;49.254;6.702;2022-12-17T08:04:37;16.63;;;11.23;;
9950;SDS011;24074;49.254;6.702;2022-12-17T08:07:23;13.73;;;10.27;;
9950;SDS011;24074;49.254;6.702;2022-12-17T08:10:07;13.00;;;9.77;;
9950;SDS011;24074;49.254;6.702;2022-12-17T08:12:52;14.87;;;11.30;;
9950;SDS011;24074;49.254;6.702;2022-12-17T08:15:37;17.97;;;12.70;;
9950;SDS011;24074;49.254;6.702;2022-12-17T08:18:21;14.90;;;10.10;;
9950;SDS011;24074;49.254;6.702;2022-12-17T08:21:05;13.63;;;9.90;;
9950;SDS011;24074;49.254;6.702;2022-12-17T08:23:49;17.07;;;10.57;;
9950;SDS011;24074;49.254;6.702;2022-12-17T08:26:34;14.77;;;10.87;;
9950;SDS011;24074;49.254;6.702;2022-12-17T08:29:18;15.77;;;11.47;;
9950;SDS011;24074;49.254;6.702;2022-12-17T08:32:02;12.47;;;9.70;;
9950;SDS011;24074;49.254;6.702;2022-12-17T08:34:46;15.10;;;11.20;;
9950;SDS011;24074;49.254;6.702;2022-12-17T08:37:30;18.50;;;12.80;;
9950;SDS011;24074;49.254;6.702;2022-12-17T08:40:14;17.20;;;13.47;;
9950;SDS011;24074;49.254;6.702;2022-12-17T08:42:58;18.60;;;13.00;;
9950;SDS011;24074;49.254;6.702;2022-12-17T08:45:48;17.63;;;12.60;;
9950;SDS011;24074;49.254;6.702;2022-12-17T08:48:38;17.90;;;13.40;;
9950;SDS011;24074;49.254;6.702;2022-12-17T08:51:23;20.60;;;14.67;;
9950;SDS011;24074;49.254;6.702;2022-12-17T08:54:07;21.03;;;15.00;;
9950;SDS011;24074;49.254;6.702;2022-12-17T08:56:52;21.27;;;14.07;;
9950;SDS011;24074;49.254;6.702;2022-12-17T08:59:37;21.13;;;14.47;;
9950;SDS011;24074;49.254;6.702;2022-12-17T09:02:21;20.50;;;15.13;;
9950;SDS011;24074;49.254;6.702;2022-12-17T09:05:05;22.87;;;16.83;;
9950;SDS011;24074;49.254;6.702;2022-12-17T09:08:23;22.10;;;16.60;;
9950;SDS011;24074;49.254;6.702;2022-12-17T09:11:01;24.57;;;18.57;;
9950;SDS011;24074;49.254;6.702;2022-12-17T09:13:56;25.20;;;18.60;;
9950;SDS011;24074;49.254;6.702;2022-12-17T09:16:40;28.73;;;18.70;;
9950;SDS011;24074;49.254;6.702;2022-12-17T09:19:24;25.70;;;18.67;;
9950;SDS011;24074;49.254;6.702;2022-12-17T09:22:08;24.03;;;17.60;;
9950;SDS011;24074;49.254;6.702;2022-12-17T09:24:52;27.60;;;18.80;;
9950;SDS011;24074;49.254;6.702;2022-12-17T09:27:36;26.27;;;18.27;;
9950;SDS011;24074;49.254;6.702;2022-12-17T09:30:20;21.03;;;16.53;;
9950;SDS011;24074;49.254;6.702;2022-12-17T09:33:05;23.83;;;17.57;;
9950;SDS011;24074;49.254;6.702;2022-12-17T09:35:49;22.07;;;16.43;;
9950;SDS011;24074;49.254;6.702;2022-12-17T09:38:33;24.13;;;17.70;;
9950;SDS011;24074;49.254;6.702;2022-12-17T09:41:27;21.40;;;15.93;;
9950;SDS011;24074;49.254;6.702;2022-12-17T09:50:24;17.10;;;10.60;;
9950;SDS011;24074;49.254;6.702;2022-12-17T09:53:16;16.97;;;11.20;;
9950;SDS011;24074;49.254;6.702;2022-12-17T09:56:25;14.57;;;10.63;;
9950;SDS011;24074;49.254;6.702;2022-12-17T09:59:20;16.87;;;11.30;;
9950;SDS011;24074;49.254;6.702;2022-12-17T10:02:12;14.97;;;10.40;;
9950;SDS011;24074;49.254;6.702;2022-12-17T10:04:59;14.63;;;10.27;;
9950;SDS011;24074;49.254;6.702;2022-12-17T10:07:46;18.47;;;11.23;;
9950;SDS011;24074;49.254;6.702;2022-12-17T10:10:45;17.70;;;11.87;;
9950;SDS011;24074;49.254;6.702;2022-12-17T10:13:29;19.97;;;13.93;;
9950;SDS011;24074;49.254;6.702;2022-12-17T10:16:25;14.57;;;11.47;;
9950;SDS011;24074;49.254;6.702;2022-12-17T10:19:18;16.73;;;12.23;;
9950;SDS011;24074;49.254;6.702;2022-12-17T10:22:07;16.00;;;11.67;;
9950;SDS011;24074;49.254;6.702;2022-12-17T10:24:54;17.13;;;11.33;;
9950;SDS011;24074;49.254;6.702;2022-12-17T10:27:38;16.30;;;12.63;;
9950;SDS011;24074;49.254;6.702;2022-12-17T10:30:22;16.17;;;11.90;;
9950;SDS011;24074;49.254;6.702;2022-12-17T10:33:06;16.13;;;11.90;;
9950;SDS011;24074;49.254;6.702;2022-12-17T10:35:54;14.83;;;11.57;;
9950;SDS011;24074;49.254;6.702;2022-12-17T10:38:38;16.37;;;12.27;;
9950;SDS011;24074;49.254;6.702;2022-12-17T10:41:24;21.93;;;12.27;;
9950;SDS011;24074;49.254;6.702;2022-12-17T10:47:26;34.23;;;20.13;;
9950;SDS011;24074;49.254;6.702;2022-12-17T10:50:14;13.77;;;11.00;;
9950;SDS011;24074;49.254;6.702;2022-12-17T10:53:15;20.03;;;13.70;;
9950;SDS011;24074;49.254;6.702;2022-12-17T10:56:02;16.33;;;11.50;;
9950;SDS011;24074;49.254;6.702;2022-12-17T10:58:51;17.77;;;12.00;;
9950;SDS011;24074;49.254;6.702;2022-12-17T11:01:36;19.07;;;13.10;;
9950;SDS011;24074;49.254;6.702;2022-12-17T11:07:11;16.23;;;11.40;;
9950;SDS011;24074;49.254;6.702;2022-12-17T11:10:05;18.57;;;10.80;;
9950;SDS011;24074;49.254;6.702;2022-12-17T11:13:02;14.30;;;9.40;;
9950;SDS011;24074;49.254;6.702;2022-12-17T11:15:52;22.60;;;15.20;;
9950;SDS011;24074;49.254;6.702;2022-12-17T11:18:41;16.07;;;10.90;;
9950;SDS011;24074;49.254;6.702;2022-12-17T11:21:47;14.40;;;10.37;;
9950;SDS011;24074;49.254;6.702;2022-12-17T11:24:37;13.63;;;9.97;;
9950;SDS011;24074;49.254;6.702;2022-12-17T11:27:35;14.10;;;9.87;;
9950;SDS011;24074;49.254;6.702;2022-12-17T11:30:25;18.03;;;11.03;;
9950;SDS011;24074;49.254;6.702;2022-12-17T11:36:25;16.20;;;10.97;;
9950;SDS011;24074;49.254;6.702;2022-12-17T11:39:17;12.83;;;8.90;;
9950;SDS011;24074;49.254;6.702;2022-12-17T11:42:14;16.37;;;11.50;;
9950;SDS011;24074;49.254;6.702;2022-12-17T11:49:06;15.17;;;10.90;;
9950;SDS011;24074;49.254;6.702;2022-12-17T11:51:46;17.13;;;11.40;;
9950;SDS011;24074;49.254;6.702;2022-12-17T11:57:44;16.43;;;11.80;;
9950;SDS011;24074;49.254;6.702;2022-12-17T12:07:30;15.97;;;11.33;;
9950;SDS011;24074;49.254;6.702;2022-12-17T12:10:27;14.80;;;11.50;;
9950;SDS011;24074;49.254;6.702;2022-12-17T12:13:22;15.70;;;11.20;;
9950;SDS011;24074;49.254;6.702;2022-12-17T12:16:18;19.80;;;12.67;;
9950;SDS011;24074;49.254;6.702;2022-12-17T12:19:32;15.47;;;11.57;;
9950;SDS011;24074;49.254;6.702;2022-12-17T12:22:57;17.93;;;12.57;;
9950;SDS011;24074;49.254;6.702;2022-12-17T12:28:51;16.40;;;12.07;;
9950;SDS011;24074;49.254;6.702;2022-12-17T12:34:34;16.17;;;11.37;;
9950;SDS011;24074;49.254;6.702;2022-12-17T12:37:21;14.73;;;11.40;;
9950;SDS011;24074;49.254;6.702;2022-12-17T12:43:18;18.30;;;12.23;;
9950;SDS011;24074;49.254;6.702;2022-12-17T12:52:07;16.67;;;11.93;;
9950;SDS011;24074;49.254;6.702;2022-12-17T12:54:55;18.80;;;13.13;;
9950;SDS011;24074;49.254;6.702;2022-12-17T12:57:53;17.60;;;12.40;;
9950;SDS011;24074;49.254;6.702;2022-12-17T13:11:48;16.43;;;11.50;;
9950;SDS011;24074;49.254;6.702;2022-12-17T13:14:24;16.53;;;11.00;;
9950;SDS011;24074;49.254;6.702;2022-12-17T13:22:26;15.33;;;11.50;;
9950;SDS011;24074;49.254;6.702;2022-12-17T13:24:55;16.77;;;11.73;;
9950;SDS011;24074;49.254;6.702;2022-12-17T13:30:10;16.80;;;12.00;;
9950;SDS011;24074;49.254;6.702;2022-12-17T13:32:43;16.07;;;11.30;;
9950;SDS011;24074;49.254;6.702;2022-12-17T13:40:43;14.47;;;10.93;;
9950;SDS011;24074;49.254;6.702;2022-12-17T13:43:29;11.93;;;9.47;;
9950;SDS011;24074;49.254;6.702;2022-12-17T13:45:57;13.70;;;9.67;;
9950;SDS011;24074;49.254;6.702;2022-12-17T13:48:24;17.37;;;10.73;;
9950;SDS011;24074;49.254;6.702;2022-12-17T13:50:55;20.00;;;13.50;;
9950;SDS011;24074;49.254;6.702;2022-12-17T13:53:26;13.53;;;10.67;;
9950;SDS011;24074;49.254;6.702;2022-12-17T13:55:54;14.63;;;11.07;;
9950;SDS011;24074;49.254;6.702;2022-12-17T13:58:28;12.77;;;9.83;;
9950;SDS011;24074;49.254;6.702;2022-12-17T14:01:08;14.40;;;10.27;;
9950;SDS011;24074;49.254;6.702;2022-12-17T14:03:36;13.27;;;9.67;;
9950;SDS011;24074;49.254;6.702;2022-12-17T14:06:03;17.53;;;11.53;;
9950;SDS011;24074;49.254;6.702;2022-12-17T14:08:32;16.67;;;11.73;;
9950;SDS011;24074;49.254;6.702;2022-12-17T14:10:58;15.47;;;11.43;;
9950;SDS011;24074;49.254;6.702;2022-12-17T14:13:43;14.43;;;10.97;;
9950;SDS011;24074;49.254;6.702;2022-12-17T14:16:15;17.07;;;11.30;;
9950;SDS011;24074;49.254;6.702;2022-12-17T14:18:42;13.50;;;10.33;;
9950;SDS011;24074;49.254;6.702;2022-12-17T14:21:11;13.07;;;9.87;;
9950;SDS011;24074;49.254;6.702;2022-12-17T14:23:37;13.83;;;10.47;;
9950;SDS011;24074;49.254;6.702;2022-12-17T14:26:04;12.40;;;9.70;;
9950;SDS011;24074;49.254;6.702;2022-12-17T14:28:33;14.53;;;9.70;;
9950;SDS011;24074;49.254;6.702;2022-12-17T14:33:39;16.30;;;10.80;;
9950;SDS011;24074;49.254;6.702;2022-12-17T14:36:28;13.20;;;10.67;;
9950;SDS011;24074;49.254;6.702;2022-12-17T14:38:54;14.47;;;10.07;;
9950;SDS011;24074;49.254;6.702;2022-12-17T14:41:24;12.40;;;9.43;;
9950;SDS011;24074;49.254;6.702;2022-12-17T14:44:28;12.90;;;8.90;;
9950;SDS011;24074;49.254;6.702;2022-12-17T14:47:16;11.87;;;9.10;;
9950;SDS011;24074;49.254;6.702;2022-12-17T14:49:47;13.53;;;10.07;;
9950;SDS011;24074;49.254;6.702;2022-12-17T14:52:22;14.17;;;11.00;;
9950;SDS011;24074;49.254;6.702;2022-12-17T14:54:57;17.23;;;11.80;;
9950;SDS011;24074;49.254;6.702;2022-12-17T14:57:22;18.23;;;11.73;;
9950;SDS011;24074;49.254;6.702;2022-12-17T14:59:48;15.60;;;11.33;;
9950;SDS011;24074;49.254;6.702;2022-12-17T15:04:50;17.10;;;12.70;;
9950;SDS011;24074;49.254;6.702;2022-12-17T15:07:21;18.10;;;11.47;;
9950;SDS011;24074;49.254;6.702;2022-12-17T15:09:49;18.97;;;13.67;;
9950;SDS011;24074;49.254;6.702;2022-12-17T15:12:16;17.23;;;12.93;;
9950;SDS011;24074;49.254;6.702;2022-12-17T15:14:42;13.90;;;10.77;;
9950;SDS011;24074;49.254;6.702;2022-12-17T15:17:08;15.97;;;10.63;;
9950;SDS011;24074;49.254;6.702;2022-12-17T15:19:34;13.57;;;10.27;;
9950;SDS011;24074;49.254;6.702;2022-12-17T15:21:59;15.13;;;9.90;;
9950;SDS011;24074;49.254;6.702;2022-12-17T15:24:26;12.53;;;9.17;;
9950;SDS011;24074;49.254;6.702;2022-12-17T15:26:52;13.77;;;8.77;;
9950;SDS011;24074;49.254;6.702;2022-12-17T15:29:18;11.43;;;8.17;;
9950;SDS011;24074;49.254;6.702;2022-12-17T15:31:44;12.37;;;8.90;;
9950;SDS011;24074;49.254;6.702;2022-12-17T15:34:10;10.63;;;8.30;;
9950;SDS011;24074;49.254;6.702;2022-12-17T15:36:36;12.57;;;8.63;;
9950;SDS011;24074;49.254;6.702;2022-12-17T15:39:01;10.37;;;8.00;;
9950;SDS011;24074;49.254;6.702;2022-12-17T15:41:30;12.13;;;8.30;;
9950;SDS011;24074;49.254;6.702;2022-12-17T15:44:14;11.00;;;8.07;;
9950;SDS011;24074;49.254;6.702;2022-12-17T15:46:39;11.80;;;8.80;;
9950;SDS011;24074;49.254;6.702;2022-12-17T15:49:05;12.47;;;8.23;;
9950;SDS011;24074;49.254;6.702;2022-12-17T15:51:31;10.23;;;7.90;;
9950;SDS011;24074;49.254;6.702;2022-12-17T15:53:56;12.37;;;8.13;;
9950;SDS011;24074;49.254;6.702;2022-12-17T15:56:23;11.00;;;7.60;;
9950;SDS011;24074;49.254;6.702;2022-12-17T15:58:50;12.63;;;8.67;;
9950;SDS011;24074;49.254;6.702;2022-12-17T16:01:16;11.87;;;8.60;;
9950;SDS011;24074;49.254;6.702;2022-12-17T16:03:42;10.77;;;7.77;;
9950;SDS011;24074;49.254;6.702;2022-12-17T16:06:08;12.57;;;7.83;;
9950;SDS011;24074;49.254;6.702;2022-12-17T16:08:35;11.17;;;7.63;;
9950;SDS011;24074;49.254;6.702;2022-12-17T16:11:04;10.33;;;8.03;;
9950;SDS011;24074;49.254;6.702;2022-12-17T16:13:31;9.80;;;7.40;;
9950;SDS011;24074;49.254;6.702;2022-12-17T16:15:57;11.17;;;8.03;;
9950;SDS011;24074;49.254;6.702;2022-12-17T16:18:23;12.70;;;8.00;;
9950;SDS011;24074;49.254;6.702;2022-12-17T16:20:48;11.20;;;7.93;;
9950;SDS011;24074;49.254;6.702;2022-12-17T16:23:15;11.60;;;8.50;;
9950;SDS011;24074;49.254;6.702;2022-12-17T16:25:41;10.83;;;8.00;;
9950;SDS011;24074;49.254;6.702;2022-12-17T16:28:06;12.10;;;8.13;;
9950;SDS011;24074;49.254;6.702;2022-12-17T16:30:32;11.27;;;9.00;;
9950;SDS011;24074;49.254;6.702;2022-12-17T16:32:57;11.87;;;9.10;;
9950;SDS011;24074;49.254;6.702;2022-12-17T16:35:23;13.40;;;8.63;;
9950;SDS011;24074;49.254;6.702;2022-12-17T16:37:50;10.67;;;7.73;;
9950;SDS011;24074;49.254;6.702;2022-12-17T16:40:16;13.03;;;8.80;;
9950;SDS011;24074;49.254;6.702;2022-12-17T16:42:41;13.23;;;9.47;;
9950;SDS011;24074;49.254;6.702;2022-12-17T16:45:07;13.03;;;8.93;;
9950;SDS011;24074;49.254;6.702;2022-12-17T16:47:33;14.30;;;8.87;;
9950;SDS011;24074;49.254;6.702;2022-12-17T16:49:58;11.60;;;7.50;;
9950;SDS011;24074;49.254;6.702;2022-12-17T16:52:24;13.83;;;8.60;;
9950;SDS011;24074;49.254;6.702;2022-12-17T16:54:50;12.20;;;8.43;;
9950;SDS011;24074;49.254;6.702;2022-12-17T16:57:15;12.23;;;8.83;;
9950;SDS011;24074;49.254;6.702;2022-12-17T16:59:41;13.13;;;8.50;;
9950;SDS011;24074;49.254;6.702;2022-12-17T17:02:13;11.73;;;8.60;;
9950;SDS011;24074;49.254;6.702;2022-12-17T17:04:39;12.43;;;9.67;;
9950;SDS011;24074;49.254;6.702;2022-12-17T17:07:05;19.17;;;12.63;;
9950;SDS011;24074;49.254;6.702;2022-12-17T17:09:31;12.97;;;9.17;;
9950;SDS011;24074;49.254;6.702;2022-12-17T17:11:57;12.43;;;8.87;;
9950;SDS011;24074;49.254;6.702;2022-12-17T17:14:23;14.53;;;9.17;;
9950;SDS011;24074;49.254;6.702;2022-12-17T17:16:49;13.40;;;9.50;;
9950;SDS011;24074;49.254;6.702;2022-12-17T17:19:15;13.40;;;9.27;;
9950;SDS011;24074;49.254;6.702;2022-12-17T17:21:47;13.50;;;9.43;;
9950;SDS011;24074;49.254;6.702;2022-12-17T17:24:15;14.53;;;8.93;;
9950;SDS011;24074;49.254;6.702;2022-12-17T17:26:41;14.73;;;10.10;;
9950;SDS011;24074;49.254;6.702;2022-12-17T17:29:08;15.00;;;9.87;;
9950;SDS011;24074;49.254;6.702;2022-12-17T17:31:34;13.53;;;8.70;;
9950;SDS011;24074;49.254;6.702;2022-12-17T17:34:00;13.33;;;9.00;;